createdAt,value
2022-10-19T00:01:24.039Z,12.37
2022-10-19T00:03:55.786Z,12.37
2022-10-19T00:06:27.122Z,13.17
2022-10-19T00:08:56.967Z,9.30
2022-10-19T00:11:25.655Z,12.50
2022-10-19T00:13:54.635Z,10.90
2022-10-19T00:16:24.235Z,10.37
2022-10-19T00:18:56.869Z,11.70
2022-10-19T00:21:25.217Z,10.53
2022-10-19T00:23:53.694Z,12.00
2022-10-19T00:26:22.185Z,10.37
2022-10-19T00:28:51.178Z,12.10
2022-10-19T00:31:19.769Z,11.23
2022-10-19T00:33:48.642Z,10.23
2022-10-19T00:36:21.659Z,16.50
2022-10-19T00:38:50.705Z,10.50
2022-10-19T00:41:21.801Z,14.10
2022-10-19T00:43:56.619Z,10.67
2022-10-19T00:46:25.454Z,11.70
2022-10-19T00:49:00.263Z,7.97
2022-10-19T00:51:32.197Z,9.77
2022-10-19T00:54:02.406Z,16.00
2022-10-19T00:56:30.993Z,10.10
2022-10-19T00:58:59.333Z,15.50
2022-10-19T01:01:29.719Z,13.07
2022-10-19T01:03:58.110Z,13.97
2022-10-19T01:06:27.472Z,11.10
2022-10-19T01:08:57.156Z,9.83
2022-10-19T01:11:40.145Z,11.07
2022-10-19T01:14:26.731Z,11.13
2022-10-19T01:17:04.915Z,10.90
2022-10-19T01:20:05.481Z,12.47
2022-10-19T01:22:56.201Z,12.73
2022-10-19T01:25:38.168Z,13.63
2022-10-19T01:28:22.705Z,12.13
2022-10-19T01:30:58.802Z,12.10
2022-10-19T01:33:42.410Z,11.27
2022-10-19T01:36:33.594Z,14.90
2022-10-19T01:39:10.745Z,11.23
2022-10-19T01:41:49.009Z,11.97
2022-10-19T01:44:22.810Z,10.27
2022-10-19T01:46:56.328Z,10.50
2022-10-19T01:49:33.350Z,11.33
2022-10-19T01:52:06.346Z,9.80
2022-10-19T01:54:39.650Z,9.83
2022-10-19T01:57:12.378Z,14.70
2022-10-19T01:59:42.130Z,15.90
2022-10-19T02:02:15.097Z,11.40
2022-10-19T02:04:44.063Z,13.83
2022-10-19T02:07:12.997Z,11.00
2022-10-19T02:09:41.316Z,11.10
2022-10-19T02:12:12.864Z,10.97
2022-10-19T02:14:45.370Z,10.60
2022-10-19T02:17:18.275Z,11.93
2022-10-19T02:19:46.709Z,10.37
2022-10-19T02:22:15.430Z,11.80
2022-10-19T02:24:43.931Z,12.60
2022-10-19T02:27:12.618Z,9.83
2022-10-19T02:29:41.849Z,9.90
2022-10-19T02:32:11.008Z,10.60
2022-10-19T02:34:41.821Z,10.80
2022-10-19T02:37:10.605Z,13.50
2022-10-19T02:39:39.942Z,13.53
2022-10-19T02:42:13.428Z,9.57
2022-10-19T02:44:48.571Z,11.90
2022-10-19T02:47:21.889Z,12.37
2022-10-19T02:49:57.712Z,10.00
2022-10-19T02:52:26.071Z,12.37
2022-10-19T02:54:54.487Z,12.10
2022-10-19T02:57:25.351Z,8.80
2022-10-19T02:59:54.452Z,11.77
2022-10-19T03:02:22.801Z,10.47
2022-10-19T03:04:52.695Z,10.60
2022-10-19T03:07:22.407Z,10.90
2022-10-19T03:09:50.843Z,15.30
2022-10-19T03:12:19.688Z,11.97
2022-10-19T03:14:47.962Z,12.37
2022-10-19T03:17:16.346Z,7.97
2022-10-19T03:19:44.626Z,12.80
2022-10-19T03:22:14.955Z,8.73
2022-10-19T03:24:43.261Z,10.80
2022-10-19T03:27:11.645Z,13.90
2022-10-19T03:29:39.973Z,9.83
2022-10-19T03:32:08.220Z,9.73
2022-10-19T03:34:36.445Z,9.10
2022-10-19T03:37:04.734Z,13.40
2022-10-19T03:39:34.401Z,7.93
2022-10-19T03:42:02.763Z,9.10
2022-10-19T03:44:31.035Z,10.57
2022-10-19T03:46:59.468Z,13.60
2022-10-19T03:49:27.784Z,12.80
2022-10-19T03:51:56.167Z,14.87
2022-10-19T03:54:27.282Z,10.63
2022-10-19T03:56:57.361Z,10.00
2022-10-19T03:59:25.666Z,14.47
2022-10-19T04:01:54.091Z,11.70
2022-10-19T04:04:22.422Z,10.87
2022-10-19T04:06:53.228Z,13.90
2022-10-19T04:09:24.427Z,8.33
2022-10-19T04:11:53.057Z,9.83
2022-10-19T04:14:32.892Z,10.23
2022-10-19T04:17:07.603Z,8.93
2022-10-19T04:19:35.852Z,10.60
2022-10-19T04:22:04.192Z,10.73
2022-10-19T04:24:32.548Z,12.00
2022-10-19T04:27:00.804Z,10.33
2022-10-19T04:29:30.922Z,9.50
2022-10-19T04:31:59.537Z,12.50
2022-10-19T04:34:28.103Z,11.53
2022-10-19T04:36:59.268Z,13.97
2022-10-19T04:39:27.872Z,10.67
2022-10-19T04:41:56.290Z,8.10
2022-10-19T04:44:24.791Z,8.43
2022-10-19T04:46:54.418Z,11.33
2022-10-19T04:49:22.810Z,11.30
2022-10-19T04:51:51.065Z,7.87
2022-10-19T04:54:19.340Z,15.70
2022-10-19T04:56:47.559Z,13.13
2022-10-19T04:59:15.797Z,9.00
2022-10-19T05:01:46.459Z,10.80
2022-10-19T05:04:16.794Z,11.70
2022-10-19T05:06:45.176Z,10.93
2022-10-19T05:09:13.538Z,14.80
2022-10-19T05:11:41.753Z,17.20
2022-10-19T05:14:10.022Z,13.17
2022-10-19T05:16:38.362Z,13.67
2022-10-19T05:19:06.595Z,14.30
2022-10-19T05:21:36.242Z,12.30
2022-10-19T05:24:04.569Z,12.83
2022-10-19T05:26:32.937Z,15.70
2022-10-19T05:29:04.430Z,13.40
2022-10-19T05:31:35.002Z,14.10
2022-10-19T05:34:04.414Z,11.07
2022-10-19T05:36:36.917Z,8.33
2022-10-19T05:39:08.772Z,11.90
2022-10-19T05:41:37.314Z,14.33
2022-10-19T05:44:06.930Z,13.83
2022-10-19T05:46:35.690Z,12.77
2022-10-19T05:49:04.527Z,10.10
2022-10-19T05:51:33.007Z,11.33
2022-10-19T05:54:04.024Z,17.43
2022-10-19T05:56:33.918Z,10.20
2022-10-19T05:59:06.776Z,9.33
2022-10-19T06:01:36.525Z,12.30
2022-10-19T06:04:07.063Z,10.50
2022-10-19T06:06:35.723Z,11.80
2022-10-19T06:09:05.582Z,10.47
2022-10-19T06:11:37.746Z,10.60
2022-10-19T06:14:08.919Z,9.80
2022-10-19T06:16:37.674Z,9.33
2022-10-19T06:19:08.354Z,14.63
2022-10-19T06:21:37.917Z,11.67
2022-10-19T06:24:11.976Z,10.37
2022-10-19T06:26:40.670Z,16.10
2022-10-19T06:29:08.939Z,16.27
2022-10-19T06:31:38.378Z,8.80
2022-10-19T06:34:07.005Z,12.33
2022-10-19T06:36:36.006Z,14.00
2022-10-19T06:39:05.162Z,16.57
2022-10-19T06:41:35.294Z,10.50
2022-10-19T06:44:19.776Z,12.50
2022-10-19T06:46:48.233Z,15.07
2022-10-19T06:49:16.769Z,14.70
2022-10-19T06:51:45.142Z,15.80
2022-10-19T06:54:13.350Z,13.97
2022-10-19T06:56:43.040Z,14.03
2022-10-19T06:59:13.503Z,13.43
2022-10-19T07:01:43.114Z,12.43
2022-10-19T07:04:11.407Z,14.73
2022-10-19T07:06:39.755Z,14.77
2022-10-19T07:09:08.022Z,16.60
2022-10-19T07:11:36.346Z,16.70
2022-10-19T07:14:06.089Z,14.77
2022-10-19T07:16:34.466Z,16.10
2022-10-19T07:19:02.755Z,16.30
2022-10-19T07:21:31.097Z,16.23
2022-10-19T07:23:59.476Z,16.97
2022-10-19T07:26:30.541Z,18.97
2022-10-19T07:28:59.128Z,14.53
2022-10-19T07:31:31.322Z,16.33
2022-10-19T07:34:01.981Z,17.10
2022-10-19T07:36:31.960Z,14.73
2022-10-19T07:39:01.572Z,17.87
2022-10-19T07:41:30.172Z,17.77
2022-10-19T07:43:59.659Z,19.23
2022-10-19T07:46:33.469Z,17.87
2022-10-19T07:49:02.672Z,17.43
2022-10-19T07:51:31.474Z,20.53
2022-10-19T07:54:00.180Z,17.20
2022-10-19T07:56:29.347Z,19.43
2022-10-19T07:59:00.629Z,17.70
2022-10-19T08:01:32.914Z,18.57
2022-10-19T08:06:51.069Z,18.27
2022-10-19T08:09:47.127Z,17.67
2022-10-19T08:12:12.387Z,18.40
2022-10-19T08:14:43.160Z,17.47
2022-10-19T08:17:16.722Z,23.07
2022-10-19T08:19:45.187Z,18.13
2022-10-19T08:22:14.033Z,16.43
2022-10-19T08:24:42.416Z,19.00
2022-10-19T08:27:10.744Z,19.80
2022-10-19T08:29:39.126Z,19.13
2022-10-19T08:32:07.446Z,15.87
2022-10-19T08:34:37.119Z,17.63
2022-10-19T08:37:14.709Z,12.77
2022-10-19T08:39:54.018Z,16.27
2022-10-19T08:42:29.989Z,14.67
2022-10-19T08:45:24.513Z,12.27
2022-10-19T08:48:05.604Z,7.43
2022-10-19T08:50:40.781Z,10.63
2022-10-19T08:53:15.048Z,11.20
2022-10-19T08:55:54.543Z,7.73
2022-10-19T08:58:40.462Z,10.77
2022-10-19T09:01:17.550Z,7.67
2022-10-19T09:03:55.431Z,10.20
2022-10-19T09:06:32.896Z,7.20
2022-10-19T09:09:01.371Z,8.50
2022-10-19T09:11:33.262Z,13.00
2022-10-19T09:14:11.460Z,5.30
2022-10-19T09:16:39.873Z,8.67
2022-10-19T09:19:19.074Z,4.90
2022-10-19T09:21:54.415Z,6.80
2022-10-19T09:24:33.176Z,7.40
2022-10-19T09:27:02.935Z,6.50
2022-10-19T09:29:40.957Z,5.17
2022-10-19T09:32:16.322Z,4.37
2022-10-19T09:34:50.751Z,7.43
2022-10-19T09:37:25.998Z,6.43
2022-10-19T09:39:56.113Z,4.90
2022-10-19T09:42:29.418Z,5.70
2022-10-19T09:45:01.952Z,5.70
2022-10-19T09:47:36.256Z,7.60
2022-10-19T09:50:17.602Z,5.00
2022-10-19T09:52:48.506Z,7.13
2022-10-19T09:55:28.414Z,8.33
2022-10-19T09:58:05.427Z,6.30
2022-10-19T10:00:39.052Z,3.37
2022-10-19T10:03:08.619Z,8.03
2022-10-19T10:05:39.067Z,6.07
2022-10-19T10:08:17.856Z,4.43
2022-10-19T10:10:49.319Z,2.30
2022-10-19T10:13:21.041Z,2.57
2022-10-19T10:15:52.589Z,2.50
2022-10-19T10:18:21.311Z,2.37
2022-10-19T10:21:05.866Z,2.50
2022-10-19T10:23:37.695Z,3.43
2022-10-19T10:26:19.350Z,2.07
2022-10-19T10:28:51.984Z,5.00
2022-10-19T10:31:25.775Z,5.10
2022-10-19T10:34:06.494Z,2.80
2022-10-19T10:36:45.486Z,6.23
2022-10-19T10:39:18.456Z,6.70
2022-10-19T10:41:49.181Z,2.93
2022-10-19T10:44:23.167Z,3.83
2022-10-19T10:46:56.021Z,3.40
2022-10-19T10:49:28.361Z,3.53
2022-10-19T10:51:59.407Z,8.40
2022-10-19T10:54:31.514Z,5.20
2022-10-19T10:57:16.897Z,2.33
2022-10-19T10:59:58.125Z,7.37
2022-10-19T11:02:41.174Z,5.23
2022-10-19T11:05:16.173Z,2.40
2022-10-19T11:07:49.153Z,2.17
2022-10-19T11:10:30.968Z,5.93
2022-10-19T11:13:09.970Z,3.50
2022-10-19T11:15:47.961Z,2.50
2022-10-19T11:18:22.525Z,4.00
2022-10-19T11:21:03.194Z,3.27
2022-10-19T11:23:53.029Z,7.00
2022-10-19T11:26:43.077Z,3.07
2022-10-19T11:29:32.372Z,2.10
2022-10-19T11:32:01.102Z,4.23
2022-10-19T11:34:47.548Z,4.80
2022-10-19T11:37:28.729Z,3.90
2022-10-19T11:40:10.224Z,4.90
2022-10-19T11:42:55.994Z,3.93
2022-10-19T11:45:38.355Z,3.50
2022-10-19T11:48:52.873Z,10.53
2022-10-19T11:51:34.263Z,4.20
2022-10-19T11:54:21.343Z,2.97
2022-10-19T11:57:03.574Z,5.17
2022-10-19T11:59:55.690Z,5.37
2022-10-19T12:03:07.895Z,3.90
2022-10-19T12:05:47.861Z,3.10
2022-10-19T12:08:37.590Z,4.33
2022-10-19T12:11:21.061Z,3.77
2022-10-19T12:13:54.073Z,3.90
2022-10-19T12:16:34.822Z,6.03
2022-10-19T12:19:06.180Z,6.20
2022-10-19T12:21:38.669Z,2.53
2022-10-19T12:24:15.617Z,3.63
2022-10-19T12:26:45.727Z,3.70
2022-10-19T12:29:19.062Z,6.33
2022-10-19T12:31:50.206Z,5.07
2022-10-19T12:34:33.739Z,3.60
2022-10-19T12:37:08.387Z,2.37
2022-10-19T12:39:44.435Z,5.00
2022-10-19T12:42:25.498Z,3.43
2022-10-19T12:45:22.820Z,4.40
2022-10-19T12:48:24.499Z,4.20
2022-10-19T12:51:18.168Z,2.13
2022-10-19T12:53:49.871Z,2.23
2022-10-19T12:56:23.306Z,4.33
2022-10-19T12:58:56.836Z,3.83
2022-10-19T13:01:30.061Z,4.37
2022-10-19T13:04:13.529Z,2.50
2022-10-19T13:06:44.767Z,5.70
2022-10-19T13:09:26.069Z,4.10
2022-10-19T13:12:29.235Z,5.17
2022-10-19T13:15:00.331Z,4.13
2022-10-19T13:17:46.134Z,3.90
2022-10-19T13:20:54.616Z,7.87
2022-10-19T13:23:42.131Z,1.87
2022-10-19T13:26:35.526Z,2.93
2022-10-19T13:29:03.921Z,4.53
2022-10-19T13:31:34.143Z,3.40
2022-10-19T13:34:10.563Z,3.43
2022-10-19T13:36:40.339Z,5.27
2022-10-19T13:39:18.531Z,3.07
2022-10-19T13:41:52.933Z,5.17
2022-10-19T13:44:33.785Z,3.70
2022-10-19T13:47:39.088Z,3.87
2022-10-19T13:50:32.059Z,3.57
2022-10-19T13:53:28.704Z,2.40
2022-10-19T13:56:23.047Z,4.70
2022-10-19T14:00:01.902Z,2.50
2022-10-19T14:03:19.745Z,8.20
2022-10-19T14:06:28.687Z,6.00
2022-10-19T14:09:35.966Z,5.63
2022-10-19T14:12:12.543Z,5.80
2022-10-19T14:14:43.009Z,4.73
2022-10-19T14:17:21.226Z,3.27
2022-10-19T14:19:53.753Z,9.47
2022-10-19T14:22:27.418Z,7.70
2022-10-19T14:25:07.374Z,4.47
2022-10-19T14:27:36.950Z,3.10
2022-10-19T14:30:07.470Z,6.40
2022-10-19T14:32:36.363Z,4.87
2022-10-19T14:35:19.995Z,4.43
2022-10-19T14:37:48.522Z,7.60
2022-10-19T14:40:30.854Z,4.53
2022-10-19T14:43:01.307Z,2.83
2022-10-19T14:45:32.043Z,2.93
2022-10-19T14:48:06.434Z,6.17
2022-10-19T14:50:43.729Z,3.83
2022-10-19T14:53:30.093Z,6.87
2022-10-19T14:56:07.242Z,5.27
2022-10-19T14:58:41.843Z,4.43
2022-10-19T15:01:12.225Z,3.67
2022-10-19T15:03:44.229Z,3.47
2022-10-19T15:06:20.811Z,5.10
2022-10-19T15:11:32.103Z,5.70
2022-10-19T15:14:07.414Z,2.13
2022-10-19T15:16:55.413Z,7.73
2022-10-19T15:19:29.511Z,8.17
2022-10-19T15:22:19.377Z,3.07
2022-10-19T15:25:03.495Z,3.00
2022-10-19T15:27:35.469Z,4.40
2022-10-19T15:30:07.728Z,3.73
2022-10-19T15:32:39.196Z,4.30
2022-10-19T15:35:13.669Z,4.43
2022-10-19T15:37:46.286Z,3.30
2022-10-19T15:40:22.087Z,3.90
2022-10-19T15:42:51.838Z,5.43
2022-10-19T15:45:34.147Z,6.20
2022-10-19T15:48:29.173Z,3.47
2022-10-19T15:50:58.553Z,5.80
2022-10-19T15:53:27.700Z,7.03
2022-10-19T15:55:56.079Z,5.40
2022-10-19T15:58:25.898Z,3.37
2022-10-19T16:00:54.148Z,2.60
2022-10-19T16:03:23.170Z,6.33
2022-10-19T16:05:51.651Z,7.83
2022-10-19T16:08:20.040Z,4.30
2022-10-19T16:10:48.438Z,6.20
2022-10-19T16:13:16.760Z,3.57
2022-10-19T16:15:53.293Z,5.80
2022-10-19T16:18:29.677Z,4.50
2022-10-19T16:20:58.181Z,6.30
2022-10-19T16:23:26.935Z,6.80
2022-10-19T16:25:55.276Z,5.33
2022-10-19T16:28:23.696Z,7.20
2022-10-19T16:30:55.721Z,6.13
2022-10-19T16:33:24.819Z,4.00
2022-10-19T16:35:53.120Z,4.00
2022-10-19T16:38:21.376Z,3.90
2022-10-19T16:40:49.866Z,7.10
2022-10-19T16:43:18.123Z,4.67
2022-10-19T16:45:46.559Z,3.90
2022-10-19T16:48:18.159Z,3.90
2022-10-19T16:51:27.541Z,5.10
2022-10-19T16:53:58.951Z,4.77
2022-10-19T16:56:30.109Z,9.63
2022-10-19T16:59:01.236Z,5.77
2022-10-19T17:01:30.798Z,3.90
2022-10-19T17:04:01.369Z,7.90
2022-10-19T17:06:30.236Z,5.30
2022-10-19T17:09:36.635Z,4.87
2022-10-19T17:11:48.981Z,7.27
2022-10-19T17:14:17.277Z,10.10
2022-10-19T17:16:45.787Z,9.80
2022-10-19T17:19:15.520Z,7.53
2022-10-19T17:21:43.955Z,4.77
2022-10-19T17:24:21.716Z,7.00
2022-10-19T17:26:52.216Z,4.77
2022-10-19T17:29:21.852Z,4.70
2022-10-19T17:31:51.389Z,8.30
2022-10-19T17:34:21.110Z,6.30
2022-10-19T17:36:49.910Z,7.90
2022-10-19T17:39:25.603Z,6.53
2022-10-19T17:42:01.831Z,5.57
2022-10-19T17:44:31.855Z,6.93
2022-10-19T17:47:01.631Z,6.17
2022-10-19T17:49:31.364Z,7.23
2022-10-19T17:51:59.949Z,6.97
2022-10-19T17:54:28.348Z,7.27
2022-10-19T17:56:56.738Z,4.40
2022-10-19T17:59:34.866Z,6.23
2022-10-19T18:02:09.360Z,6.70
2022-10-19T18:04:39.277Z,5.40
2022-10-19T18:07:07.676Z,7.70
2022-10-19T18:09:35.986Z,7.70
2022-10-19T18:12:06.438Z,8.10
2022-10-19T18:14:35.813Z,6.97
2022-10-19T18:17:04.118Z,8.77
2022-10-19T18:19:32.429Z,5.40
2022-10-19T18:22:02.302Z,5.50
2022-10-19T18:24:31.004Z,6.07
2022-10-19T18:26:59.370Z,7.63
2022-10-19T18:29:29.559Z,8.07
2022-10-19T18:31:57.976Z,5.67
2022-10-19T18:34:28.245Z,8.73
2022-10-19T18:36:56.846Z,7.50
2022-10-19T18:39:26.489Z,6.53
2022-10-19T18:41:55.374Z,10.07
2022-10-19T18:44:27.151Z,13.00
2022-10-19T18:46:57.465Z,7.47
2022-10-19T18:49:26.118Z,7.83
2022-10-19T18:51:55.782Z,6.40
2022-10-19T18:54:27.961Z,5.43
2022-10-19T18:56:56.720Z,7.20
2022-10-19T19:01:54.270Z,4.83
2022-10-19T19:04:22.778Z,6.87
2022-10-19T19:06:51.207Z,7.43
2022-10-19T19:09:20.102Z,8.20
2022-10-19T19:11:50.540Z,6.97
2022-10-19T19:14:21.524Z,6.53
2022-10-19T19:16:49.857Z,8.17
2022-10-19T19:19:21.019Z,8.00
2022-10-19T19:21:50.120Z,6.80
2022-10-19T19:24:21.840Z,6.50
2022-10-19T19:26:54.927Z,5.13
2022-10-19T19:29:24.976Z,6.17
2022-10-19T19:31:54.434Z,5.70
2022-10-19T19:34:22.885Z,7.07
2022-10-19T19:36:51.370Z,5.63
2022-10-19T19:39:21.868Z,5.47
2022-10-19T19:41:52.162Z,10.53
2022-10-19T19:44:21.049Z,10.07
2022-10-19T19:46:49.561Z,4.60
2022-10-19T19:49:18.140Z,5.63
2022-10-19T19:51:46.590Z,6.03
2022-10-19T19:54:14.910Z,5.37
2022-10-19T19:56:43.366Z,7.53
2022-10-19T19:59:14.210Z,5.90
2022-10-19T20:01:42.899Z,5.20
2022-10-19T20:04:12.474Z,5.27
2022-10-19T20:06:42.932Z,7.93
2022-10-19T20:09:12.100Z,8.13
2022-10-19T20:11:42.706Z,6.50
2022-10-19T20:14:13.714Z,6.47
2022-10-19T20:16:42.366Z,6.43
2022-10-19T20:19:14.051Z,4.10
2022-10-19T20:21:43.006Z,6.27
2022-10-19T20:24:12.162Z,6.50
2022-10-19T20:26:40.459Z,7.30
2022-10-19T20:29:08.732Z,7.70
2022-10-19T20:31:40.601Z,7.80
2022-10-19T20:34:12.221Z,8.07
2022-10-19T20:36:40.855Z,10.87
2022-10-19T20:39:09.696Z,5.30
2022-10-19T20:41:38.155Z,8.03
2022-10-19T20:44:06.690Z,6.63
2022-10-19T20:46:36.972Z,8.53
2022-10-19T20:49:07.437Z,8.33
2022-10-19T20:51:38.009Z,7.63
2022-10-19T20:54:08.820Z,5.53
2022-10-19T20:56:39.374Z,6.40
2022-10-19T20:59:11.901Z,7.03
2022-10-19T21:01:43.476Z,7.37
2022-10-19T21:04:15.682Z,6.47
2022-10-19T21:06:46.389Z,8.90
2022-10-19T21:09:17.201Z,8.10
2022-10-19T21:11:47.272Z,5.03
2022-10-19T21:14:21.103Z,7.47
2022-10-19T21:16:52.347Z,11.57
2022-10-19T21:19:25.263Z,8.73
2022-10-19T21:21:56.459Z,7.83
2022-10-19T21:24:28.145Z,6.37
2022-10-19T21:26:56.767Z,11.00
2022-10-19T21:29:25.290Z,7.43
2022-10-19T21:31:54.572Z,11.87
2022-10-19T21:34:27.272Z,14.83
2022-10-19T21:36:56.557Z,13.00
2022-10-19T21:39:25.576Z,8.20
2022-10-19T21:41:54.078Z,11.70
2022-10-19T21:44:23.325Z,7.33
2022-10-19T21:46:51.829Z,12.77
2022-10-19T21:49:20.318Z,13.57
2022-10-19T21:51:53.562Z,6.97
2022-10-19T21:54:25.466Z,8.20
2022-10-19T21:56:55.744Z,7.97
2022-10-19T21:59:23.986Z,7.60
2022-10-19T22:01:57.815Z,10.43
2022-10-19T22:04:26.282Z,10.00
2022-10-19T22:06:56.123Z,11.63
2022-10-19T22:09:24.477Z,8.20
2022-10-19T22:11:52.782Z,8.47
2022-10-19T22:14:22.149Z,9.57
2022-10-19T22:16:50.617Z,8.80
2022-10-19T22:19:20.876Z,8.27
2022-10-19T22:21:49.293Z,11.03
2022-10-19T22:24:19.105Z,11.90
2022-10-19T22:26:50.863Z,10.77
2022-10-19T22:29:20.083Z,9.40
2022-10-19T22:31:48.416Z,10.13
2022-10-19T22:34:18.875Z,12.27
2022-10-19T22:36:47.328Z,11.33
2022-10-19T22:39:16.410Z,10.97
2022-10-19T22:42:59.433Z,10.70
2022-10-19T22:45:50.086Z,11.90
2022-10-19T22:48:19.747Z,16.80
2022-10-19T22:50:48.207Z,13.47
2022-10-19T22:53:16.529Z,10.17
2022-10-19T22:55:45.064Z,8.00
2022-10-19T22:58:13.620Z,11.73
2022-10-19T23:00:42.156Z,10.10
2022-10-19T23:03:11.873Z,11.90
2022-10-19T23:05:40.213Z,11.50
2022-10-19T23:08:08.685Z,10.43
2022-10-19T23:10:37.038Z,11.37
2022-10-19T23:13:05.487Z,10.77
2022-10-19T23:15:33.872Z,12.13
2022-10-19T23:18:02.467Z,10.03
2022-10-19T23:20:32.133Z,13.47
2022-10-19T23:23:00.513Z,11.60
2022-10-19T23:25:28.940Z,8.40
2022-10-19T23:27:57.215Z,13.17
2022-10-19T23:30:25.706Z,10.07
2022-10-19T23:32:54.079Z,11.40
2022-10-19T23:35:22.359Z,12.83
2022-10-19T23:37:52.026Z,10.50
2022-10-19T23:40:20.382Z,17.80
2022-10-19T23:42:48.642Z,11.10
2022-10-19T23:45:17.145Z,11.07
2022-10-19T23:47:45.435Z,12.87
2022-10-19T23:50:13.783Z,11.67
2022-10-19T23:52:42.069Z,12.10
2022-10-19T23:55:12.029Z,12.53
2022-10-19T23:57:40.313Z,13.43
